Time;durP1;ratioP1;P1;durP2;ratioP2;P2;SDS_P1;SDS_P2;PMS_P1;PMS_P2;Temp;Humidity;BMP_temperature;BMP_pressure;BME280_temperature;BME280_humidity;BME280_pressure;Samples;Min_cycle;Max_cycle;Signal;HPM_P1;HPM_P2
2023/04/23 00:00:11;;;;;;;26.70;9.10;;;8.40;99.90;;;;;;4416713;28;658653;-70
2023/04/23 00:02:58;;;;;;;22.80;9.60;;;8.30;99.90;;;;;;4418014;28;658968;-69
2023/04/23 00:05:49;;;;;;;25.40;9.90;;;8.30;99.90;;;;;;4436433;28;659001;-70
2023/04/23 00:08:38;;;;;;;21.93;8.93;;;8.30;99.90;;;;;;4426342;28;659298;-69
2023/04/23 00:11:26;;;;;;;22.80;9.57;;;8.20;99.90;;;;;;4419094;28;658892;-70
2023/04/23 00:14:14;;;;;;;24.87;9.27;;;8.20;99.90;;;;;;4451174;28;659155;-69
2023/04/23 00:17:02;;;;;;;19.13;8.77;;;8.10;99.90;;;;;;4438102;28;658995;-69
2023/04/23 00:19:51;;;;;;;25.63;10.57;;;8.00;99.90;;;;;;4446395;28;658299;-70
2023/04/23 00:22:39;;;;;;;18.40;9.00;;;8.00;99.90;;;;;;4441930;28;660871;-69
2023/04/23 00:25:26;;;;;;;23.20;9.13;;;7.90;99.90;;;;;;4428300;28;658578;-69
2023/04/23 00:28:14;;;;;;;20.33;9.70;;;7.90;99.90;;;;;;4453408;28;659813;-69
2023/04/23 00:31:01;;;;;;;22.23;9.53;;;7.90;99.90;;;;;;4436546;28;658692;-70
2023/04/23 00:33:48;;;;;;;19.87;8.93;;;7.90;99.90;;;;;;4449597;28;659152;-69
2023/04/23 00:36:35;;;;;;;22.20;9.05;;;7.80;99.90;;;;;;4428871;28;659037;-70
2023/04/23 00:39:24;;;;;;;17.70;8.30;;;7.60;99.90;;;;;;4451439;28;659379;-69
2023/04/23 00:42:11;;;;;;;19.00;8.57;;;7.70;99.90;;;;;;4421677;28;659249;-69
2023/04/23 00:44:58;;;;;;;19.53;8.83;;;7.70;99.90;;;;;;4458868;28;659278;-69
2023/04/23 00:47:46;;;;;;;16.07;7.57;;;7.70;99.90;;;;;;4421534;28;658841;-70
2023/04/23 00:50:33;;;;;;;16.23;8.53;;;7.60;99.90;;;;;;4456469;28;660014;-69
2023/04/23 00:53:20;;;;;;;19.70;9.67;;;7.60;99.90;;;;;;4425776;28;658731;-70
2023/04/23 00:56:09;;;;;;;15.13;8.23;;;7.60;99.90;;;;;;4452218;28;658383;-69
2023/04/23 00:58:56;;;;;;;19.83;8.27;;;7.40;99.90;;;;;;4421953;28;658956;-69
2023/04/23 01:01:44;;;;;;;15.93;8.03;;;7.30;99.90;;;;;;4456468;28;659735;-69
2023/04/23 01:04:31;;;;;;;19.07;9.17;;;7.20;99.90;;;;;;4430209;28;658398;-70
2023/04/23 01:07:18;;;;;;;18.77;9.23;;;7.30;99.90;;;;;;4443698;28;659344;-69
2023/04/23 01:10:07;;;;;;;18.23;8.83;;;7.20;99.90;;;;;;4420745;28;658258;-69
2023/04/23 01:12:55;;;;;;;20.47;9.07;;;7.20;99.90;;;;;;4432514;28;659016;-70
2023/04/23 01:15:45;;;;;;;23.27;9.80;;;7.00;99.90;;;;;;4420774;28;659724;-69
2023/04/23 01:18:33;;;;;;;19.83;9.00;;;7.00;99.90;;;;;;4427978;28;659247;-69
2023/04/23 01:21:20;;;;;;;19.97;9.00;;;7.00;99.90;;;;;;4430580;28;658613;-70
2023/04/23 01:24:09;;;;;;;19.20;8.77;;;6.90;99.90;;;;;;4438501;28;659615;-70
2023/04/23 01:26:57;;;;;;;21.75;9.80;;;6.90;99.90;;;;;;4435821;28;658892;-69
2023/04/23 01:29:44;;;;;;;18.10;9.27;;;6.80;99.90;;;;;;4443282;28;658214;-70
2023/04/23 01:32:32;;;;;;;20.63;10.07;;;6.70;99.90;;;;;;4414788;28;659285;-70
2023/04/23 01:35:19;;;;;;;26.17;11.17;;;6.70;99.90;;;;;;4451181;28;659473;-69
2023/04/23 01:38:06;;;;;;;26.27;10.80;;;6.60;99.90;;;;;;4426934;28;659882;-69
2023/04/23 01:40:55;;;;;;;26.30;11.40;;;6.60;99.90;;;;;;4450448;28;659960;-69
2023/04/23 01:43:42;;;;;;;36.63;13.50;;;6.50;99.90;;;;;;4425594;28;660378;-69
2023/04/23 01:46:29;;;;;;;31.60;11.50;;;6.50;99.90;;;;;;4450529;28;659400;-71
2023/04/23 01:49:16;;;;;;;19.10;9.47;;;6.40;99.90;;;;;;4423792;28;659729;-70
2023/04/23 01:52:04;;;;;;;28.77;10.73;;;6.20;99.90;;;;;;4446674;28;659691;-69
2023/04/23 01:54:51;;;;;;;24.00;10.83;;;6.10;99.90;;;;;;4418225;28;661119;-70
2023/04/23 01:57:40;;;;;;;28.63;11.73;;;6.10;99.90;;;;;;4445297;28;660330;-69
2023/04/23 02:00:27;;;;;;;27.93;12.00;;;6.10;99.90;;;;;;4416747;28;661007;-69
2023/04/23 02:03:14;;;;;;;36.30;14.63;;;6.10;99.90;;;;;;4441635;28;659792;-69
2023/04/23 02:06:03;;;;;;;29.70;12.63;;;6.10;99.90;;;;;;4426296;28;660065;-69
2023/04/23 02:08:50;;;;;;;40.10;13.80;;;6.00;99.90;;;;;;4418987;28;660580;-70
2023/04/23 02:11:38;;;;;;;36.40;13.93;;;6.00;99.90;;;;;;4456656;28;661288;-69
2023/04/23 02:14:27;;;;;;;32.25;13.93;;;6.00;99.90;;;;;;4421419;28;659788;-70
2023/04/23 02:17:14;;;;;;;31.90;11.83;;;6.00;99.90;;;;;;4442898;28;659494;-69
2023/04/23 02:20:01;;;;;;;25.57;11.60;;;6.00;99.90;;;;;;4412067;28;659950;-70
2023/04/23 02:22:48;;;;;;;36.80;11.70;;;5.90;99.90;;;;;;4432250;28;659945;-69
2023/04/23 02:25:37;;;;;;;31.40;12.30;;;5.80;99.90;;;;;;4420207;28;659542;-70
2023/04/23 02:28:24;;;;;;;24.10;11.30;;;5.80;99.90;;;;;;4435708;28;659747;-69
2023/04/23 02:31:13;;;;;;;22.87;10.93;;;5.80;99.90;;;;;;4426126;28;659271;-70
2023/04/23 02:34:01;;;;;;;20.63;9.60;;;5.80;99.90;;;;;;4429452;28;659635;-70
2023/04/23 02:36:48;;;;;;;21.10;9.47;;;5.80;99.90;;;;;;4450065;28;659303;-69
2023/04/23 02:39:37;;;;;;;21.63;10.32;;;5.60;1.00;;;;;;4440779;28;658803;-70
2023/04/23 02:42:25;;;;;;;19.23;10.00;;;5.60;1.00;;;;;;4447035;28;658699;-69
2023/04/23 02:45:12;;;;;;;24.07;9.53;;;5.60;1.00;;;;;;4431962;28;659430;-69
2023/04/23 02:48:00;;;;;;;18.80;9.30;;;5.60;1.00;;;;;;4387295;28;657649;-71
2023/04/23 02:50:47;;;;;;;19.67;9.43;;;5.60;1.00;;;;;;4248338;28;657683;-71
2023/04/23 02:53:35;;;;;;;17.03;9.10;;;5.50;1.00;;;;;;4262534;28;657847;-71
2023/04/23 02:56:22;;;;;;;20.30;9.23;;;5.60;1.00;;;;;;4438411;28;657773;-69
2023/04/23 02:59:10;;;;;;;21.30;9.27;;;5.60;1.00;;;;;;4442098;28;657505;-71
2023/04/23 03:01:57;;;;;;;18.23;9.03;;;5.50;1.00;;;;;;4445407;28;658097;-70
2023/04/23 03:04:46;;;;;;;21.77;9.50;;;5.50;1.00;;;;;;4449691;28;657978;-69
2023/04/23 03:07:33;;;;;;;20.53;9.60;;;5.50;1.00;;;;;;4425084;28;658944;-70
2023/04/23 03:10:20;;;;;;;17.13;9.17;;;5.50;1.00;;;;;;4426592;28;657576;-70
2023/04/23 03:13:07;;;;;;;21.67;9.70;;;5.50;1.00;;;;;;4439129;28;657899;-69
2023/04/23 03:15:55;;;;;;;17.67;9.13;;;5.40;1.00;;;;;;4440314;28;657529;-70
2023/04/23 03:18:42;;;;;;;16.23;9.27;;;5.40;1.00;;;;;;4440984;28;658482;-70
2023/04/23 03:21:32;;;;;;;21.67;9.13;;;5.40;1.00;;;;;;4431508;28;657743;-71
2023/04/23 03:24:19;;;;;;;18.97;9.10;;;5.40;1.00;;;;;;4436230;28;658450;-69
2023/04/23 03:27:06;;;;;;;17.53;8.90;;;5.40;1.00;;;;;;4424203;28;657921;-70
2023/04/23 03:29:53;;;;;;;18.47;9.40;;;5.40;1.00;;;;;;4459588;28;657810;-69
2023/04/23 03:32:41;;;;;;;18.13;9.20;;;5.40;1.00;;;;;;4430484;28;657727;-70
2023/04/23 03:35:28;;;;;;;18.30;9.90;;;5.30;1.00;;;;;;4440353;28;658259;-69
2023/04/23 03:38:17;;;;;;;20.75;9.10;;;5.30;1.00;;;;;;4420267;28;657596;-70
2023/04/23 03:41:04;;;;;;;18.17;8.93;;;5.30;1.00;;;;;;4440075;28;657343;-70
2023/04/23 03:43:51;;;;;;;19.90;9.77;;;5.30;1.00;;;;;;4413787;28;657778;-69
2023/04/23 03:46:38;;;;;;;22.88;9.32;;;5.30;1.00;;;;;;4433315;28;658595;-69
2023/04/23 03:49:26;;;;;;;19.53;9.30;;;5.40;1.00;;;;;;4422043;28;657571;-69
2023/04/23 03:52:13;;;;;;;21.30;9.10;;;5.40;1.00;;;;;;4453797;28;657307;-69
2023/04/23 03:55:02;;;;;;;18.33;8.83;;;5.40;1.00;;;;;;4442697;28;658310;-69
2023/04/23 03:57:49;;;;;;;16.70;8.73;;;5.40;1.00;;;;;;4439481;28;657680;-69
2023/04/23 04:00:36;;;;;;;22.87;9.13;;;5.40;1.00;;;;;;4420392;28;657634;-69
2023/04/23 04:03:24;;;;;;;16.97;8.47;;;5.50;1.00;;;;;;4441691;28;657591;-69
2023/04/23 04:06:11;;;;;;;17.03;8.90;;;5.50;1.00;;;;;;4418741;28;657883;-69
2023/04/23 04:08:59;;;;;;;22.40;9.50;;;5.60;1.00;;;;;;4443286;28;657254;-69
2023/04/23 04:11:47;;;;;;;18.47;8.80;;;5.60;1.00;;;;;;4427391;28;657296;-70
2023/04/23 04:14:34;;;;;;;20.43;8.67;;;5.80;1.00;;;;;;4442725;28;657202;-70
2023/04/23 04:17:22;;;;;;;20.03;9.00;;;5.80;1.00;;;;;;4436280;28;658079;-70
2023/04/23 04:20:10;;;;;;;18.70;8.17;;;5.90;1.00;;;;;;4458090;28;658062;-69
2023/04/23 04:22:58;;;;;;;21.13;8.70;;;6.10;1.00;;;;;;4420042;28;658825;-69
2023/04/23 04:25:46;;;;;;;15.13;8.53;;;6.10;1.00;;;;;;4429070;28;657637;-70
2023/04/23 04:28:36;;;;;;;20.00;8.53;;;6.20;1.00;;;;;;4441451;28;658332;-69
2023/04/23 04:31:24;;;;;;;28.23;11.73;;;6.30;1.00;;;;;;4421150;28;658138;-69
2023/04/23 04:34:13;;;;;;;87.80;29.33;;;6.40;1.00;;;;;;4421087;28;659301;-70
2023/04/23 04:37:00;;;;;;;42.67;16.33;;;6.60;1.00;;;;;;4437217;28;658685;-70
2023/04/23 04:39:48;;;;;;;70.87;23.53;;;6.70;1.00;;;;;;4439552;28;659133;-69
2023/04/23 04:42:36;;;;;;;47.13;17.90;;;6.80;1.00;;;;;;4426037;28;658599;-70
2023/04/23 04:45:24;;;;;;;38.43;13.83;;;6.90;1.00;;;;;;4440265;28;660167;-69
2023/04/23 04:48:11;;;;;;;40.47;15.73;;;7.10;1.00;;;;;;4437846;28;658432;-69
2023/04/23 04:50:59;;;;;;;27.43;12.10;;;7.20;1.00;;;;;;4440121;28;658833;-70
2023/04/23 04:53:46;;;;;;;22.67;10.57;;;7.40;1.00;;;;;;4429466;28;658286;-70
2023/04/23 04:56:33;;;;;;;22.27;10.07;;;7.50;1.00;;;;;;4438625;28;658366;-70
2023/04/23 04:59:20;;;;;;;21.37;9.43;;;7.70;1.00;;;;;;4429032;28;659421;-70
2023/04/23 05:02:09;;;;;;;19.40;9.13;;;7.90;1.00;;;;;;4444700;28;658489;-69
2023/04/23 05:04:57;;;;;;;19.13;8.73;;;8.10;1.00;;;;;;4436315;28;657335;-71
2023/04/23 05:07:44;;;;;;;19.20;9.13;;;8.40;99.90;;;;;;4443331;28;657358;-70
2023/04/23 05:10:31;;;;;;;28.15;9.77;;;8.60;99.90;;;;;;4425619;28;658798;-71
2023/04/23 05:13:18;;;;;;;20.37;8.93;;;8.70;99.90;;;;;;4459243;28;658163;-70
2023/04/23 05:16:06;;;;;;;17.63;9.40;;;8.90;99.90;;;;;;4438323;28;658482;-71
2023/04/23 05:18:55;;;;;;;22.67;10.17;;;9.10;1.00;;;;;;4458546;28;659160;-70
2023/04/23 05:21:42;;;;;;;20.67;11.90;;;9.40;1.00;;;;;;4415431;28;659175;-70
2023/04/23 05:24:29;;;;;;;22.87;11.80;;;9.60;1.00;;;;;;4451069;28;658470;-69
2023/04/23 05:27:16;;;;;;;23.20;11.23;;;9.80;1.00;;;;;;4429975;28;658484;-70
2023/04/23 05:30:05;;;;;;;22.23;11.00;;;10.00;1.00;;;;;;4446657;28;659297;-70
2023/04/23 05:32:52;;;;;;;16.50;9.30;;;10.20;1.00;;;;;;4409308;28;660254;-69
2023/04/23 05:35:41;;;;;;;16.77;8.90;;;10.50;99.90;;;;;;4437225;28;658440;-68
2023/04/23 05:38:28;;;;;;;19.47;8.30;;;10.70;99.90;;;;;;4417837;28;660228;-69
2023/04/23 05:41:15;;;;;;;15.30;9.00;;;11.00;99.90;;;;;;4434328;28;659961;-70
2023/04/23 05:44:02;;;;;;;13.43;7.60;;;11.30;99.90;;;;;;4448777;28;660277;-69
2023/04/23 05:46:50;;;;;;;18.27;7.73;;;11.50;99.90;;;;;;4444193;28;660063;-70
2023/04/23 05:49:37;;;;;;;13.93;7.60;;;11.80;99.90;;;;;;4455054;27;659608;-69
2023/04/23 05:52:26;;;;;;;16.27;7.80;;;12.00;99.90;;;;;;4435302;28;659702;-70
2023/04/23 05:55:14;;;;;;;20.43;7.70;;;12.20;99.90;;;;;;4419924;28;660635;-68
2023/04/23 05:58:02;;;;;;;18.30;8.00;;;12.40;99.90;;;;;;4415787;28;660429;-68
2023/04/23 06:00:49;;;;;;;13.80;7.30;;;12.70;99.90;;;;;;4442753;28;659095;-68
2023/04/23 06:03:36;;;;;;;12.97;7.57;;;12.90;99.90;;;;;;4419860;28;659432;-69
2023/04/23 06:06:24;;;;;;;18.13;7.73;;;13.10;99.90;;;;;;4453712;28;659940;-68
2023/04/23 06:09:12;;;;;;;12.23;7.20;;;13.30;99.90;;;;;;4415164;28;660229;-69
2023/04/23 06:11:59;;;;;;;13.47;7.20;;;13.50;99.90;;;;;;4430348;28;660232;-69
2023/04/23 06:14:47;;;;;;;14.93;7.13;;;13.70;99.90;;;;;;4417485;28;659545;-69
2023/04/23 06:17:34;;;;;;;14.63;7.80;;;13.80;99.90;;;;;;4430543;28;659984;-70
2023/04/23 06:20:22;;;;;;;12.67;6.50;;;14.00;99.90;;;;;;4431016;28;659958;-69
2023/04/23 06:23:09;;;;;;;13.90;7.10;;;14.10;99.90;;;;;;4450874;28;659262;-69
2023/04/23 06:25:58;;;;;;;11.87;6.60;;;14.30;99.90;;;;;;4421225;28;660335;-69
2023/04/23 06:28:45;;;;;;;21.47;8.00;;;14.40;99.90;;;;;;4437196;28;661073;-69
2023/04/23 06:31:33;;;;;;;12.37;7.30;;;14.60;99.90;;;;;;4447520;28;660484;-69
2023/04/23 06:34:20;;;;;;;18.65;7.90;;;14.70;99.90;;;;;;4428348;28;659774;-70
2023/04/23 06:37:08;;;;;;;16.53;7.33;;;14.90;99.90;;;;;;4451081;28;660067;-68
2023/04/23 06:39:55;;;;;;;15.60;8.33;;;15.00;99.90;;;;;;4420681;28;660413;-69
2023/04/23 06:42:44;;;;;;;10.17;6.60;;;15.10;99.90;;;;;;4447162;28;660088;-68
2023/04/23 06:45:32;;;;;;;16.87;7.23;;;15.20;99.90;;;;;;4416022;28;659707;-70
2023/04/23 06:48:21;;;;;;;11.43;6.87;;;15.40;99.90;;;;;;4445821;28;660365;-68
2023/04/23 06:51:08;;;;;;;12.47;6.93;;;15.40;99.90;;;;;;4413394;28;660955;-68
2023/04/23 06:53:55;;;;;;;15.43;7.73;;;15.50;99.90;;;;;;4424678;28;659958;-73
2023/04/23 06:56:42;;;;;;;13.60;7.07;;;15.60;99.90;;;;;;4430950;28;659819;-75
2023/04/23 06:59:32;;;;;;;16.97;7.60;;;15.80;99.90;;;;;;4441769;28;660061;-74
2023/04/23 07:02:19;;;;;;;16.80;7.20;;;16.00;99.90;;;;;;4451613;28;659665;-75
2023/04/23 07:05:06;;;;;;;15.00;7.13;;;16.10;99.90;;;;;;4415544;28;659554;-74
2023/04/23 07:07:53;;;;;;;11.27;7.33;;;16.20;99.90;;;;;;4437909;28;660353;-75
2023/04/23 07:10:41;;;;;;;11.13;7.23;;;16.40;99.90;;;;;;4418289;28;660160;-74
2023/04/23 07:13:28;;;;;;;17.53;7.70;;;16.50;99.90;;;;;;4438810;28;659928;-75
2023/04/23 07:16:17;;;;;;;10.47;6.60;;;16.80;99.90;;;;;;4427136;28;659617;-73
2023/04/23 07:19:04;;;;;;;16.13;7.17;;;16.80;99.90;;;;;;4439350;28;660083;-74
2023/04/23 07:21:52;;;;;;;12.00;6.47;;;16.80;99.90;;;;;;4415821;28;660054;-74
2023/04/23 07:24:40;;;;;;;14.30;7.17;;;16.80;99.90;;;;;;4429389;28;659308;-74
2023/04/23 07:27:27;;;;;;;14.90;6.73;;;17.00;99.90;;;;;;4419303;28;660704;-75
2023/04/23 07:30:15;;;;;;;10.32;6.63;;;17.20;99.90;;;;;;4435682;28;659448;-75
2023/04/23 07:33:03;;;;;;;16.87;7.00;;;17.20;99.90;;;;;;4418916;28;660540;-74
2023/04/23 07:35:51;;;;;;;10.50;6.20;;;17.30;99.90;;;;;;4415776;28;660067;-74
2023/04/23 07:38:38;;;;;;;11.17;6.10;;;17.40;99.90;;;;;;4443832;28;659859;-73
2023/04/23 07:41:25;;;;;;;10.70;6.03;;;17.50;99.90;;;;;;4426687;28;659543;-73
2023/04/23 07:44:13;;;;;;;13.33;6.13;;;17.90;99.90;;;;;;4442874;28;660007;-74
2023/04/23 07:47:00;;;;;;;11.77;5.87;;;18.20;99.90;;;;;;4444026;28;659509;-73
2023/04/23 07:49:49;;;;;;;11.23;6.00;;;18.50;99.90;;;;;;4446068;28;659535;-76
2023/04/23 07:52:36;;;;;;;11.83;5.83;;;18.80;99.90;;;;;;4424895;28;660320;-75
2023/04/23 07:55:23;;;;;;;13.97;5.60;;;18.90;99.90;;;;;;4442849;28;660503;-75
2023/04/23 07:58:10;;;;;;;13.57;5.53;;;19.20;99.90;;;;;;4417731;28;659509;-74
2023/04/23 08:00:58;;;;;;;8.67;4.50;;;19.40;99.90;;;;;;4430066;28;660171;-75
2023/04/23 08:03:45;;;;;;;8.07;4.10;;;19.20;99.90;;;;;;4429489;28;658970;-73
2023/04/23 08:06:34;;;;;;;10.83;4.40;;;19.20;99.90;;;;;;4449973;28;660040;-74
2023/04/23 08:09:21;;;;;;;10.57;4.37;;;19.10;99.90;;;;;;4435086;28;659991;-75
2023/04/23 08:12:08;;;;;;;9.77;4.23;;;19.00;99.90;;;;;;4453365;28;659579;-74
2023/04/23 08:14:56;;;;;;;6.47;3.97;;;19.20;99.90;;;;;;4419818;28;658935;-74
2023/04/23 08:17:43;;;;;;;13.63;3.97;;;19.60;99.90;;;;;;4444525;28;658708;-75
2023/04/23 08:20:31;;;;;;;6.40;3.63;;;19.70;99.90;;;;;;4417142;28;660323;-74
2023/04/23 08:23:20;;;;;;;7.97;3.83;;;19.80;99.90;;;;;;4439214;28;658538;-75
2023/04/23 08:26:07;;;;;;;8.40;4.37;;;19.30;99.90;;;;;;4422903;28;659863;-74
2023/04/23 08:28:54;;;;;;;8.40;4.17;;;19.10;99.90;;;;;;4444197;28;659349;-75
2023/04/23 08:31:41;;;;;;;8.97;4.07;;;19.30;99.90;;;;;;4414604;28;659001;-74
2023/04/23 08:34:29;;;;;;;7.27;4.00;;;19.30;99.90;;;;;;4441766;28;658589;-75
2023/04/23 08:37:16;;;;;;;11.47;4.00;;;19.70;99.90;;;;;;4419702;28;658758;-75
2023/04/23 08:40:07;;;;;;;7.70;3.93;;;19.50;99.90;;;;;;4442200;28;659970;-75
2023/04/23 08:42:57;;;;;;;9.97;4.10;;;19.30;99.90;;;;;;4420168;28;658813;-75
2023/04/23 08:45:45;;;;;;;5.03;3.30;;;19.40;99.90;;;;;;4417402;28;658532;-74
2023/04/23 08:48:32;;;;;;;10.10;3.67;;;19.60;99.90;;;;;;4429331;27;659604;-73
2023/04/23 08:51:21;;;;;;;6.20;3.87;;;19.60;99.90;;;;;;4322550;28;659948;-72
2023/04/23 08:54:08;;;;;;;7.03;3.83;;;19.60;99.90;;;;;;4267994;28;660558;-72
2023/04/23 08:56:57;;;;;;;9.27;4.00;;;19.50;99.90;;;;;;4297727;28;658885;-74
2023/04/23 08:59:45;;;;;;;7.57;4.20;;;19.70;99.90;;;;;;4449817;28;659222;-75
2023/04/23 09:02:32;;;;;;;6.77;4.03;;;19.30;99.90;;;;;;4423388;28;658829;-74
2023/04/23 09:05:19;;;;;;;10.20;4.00;;;19.70;99.90;;;;;;4459455;28;659007;-75
2023/04/23 09:08:07;;;;;;;8.03;3.80;;;20.00;99.90;;;;;;4432993;28;659634;-72
2023/04/23 09:10:55;;;;;;;14.87;4.20;;;20.60;99.90;;;;;;4456302;28;658507;-73
2023/04/23 09:13:43;;;;;;;10.80;4.07;;;20.60;99.90;;;;;;4408447;28;661333;-75
2023/04/23 09:16:30;;;;;;;11.77;4.43;;;20.30;99.90;;;;;;4423603;28;659476;-75
2023/04/23 09:19:18;;;;;;;7.70;3.93;;;20.50;99.90;;;;;;4447289;28;659472;-74
2023/04/23 09:22:07;;;;;;;7.75;4.22;;;20.60;99.90;;;;;;4406714;28;659191;-73
2023/04/23 09:24:54;;;;;;;8.63;3.83;;;20.60;99.90;;;;;;4447684;28;658056;-73
2023/04/23 09:27:41;;;;;;;7.80;4.30;;;21.00;99.90;;;;;;4413568;28;658480;-74
2023/04/23 09:30:30;;;;;;;8.60;3.97;;;21.00;99.90;;;;;;4440097;28;659279;-74
2023/04/23 09:33:17;;;;;;;7.47;3.70;;;21.70;99.90;;;;;;4422694;28;658629;-75
2023/04/23 09:36:10;;;;;;;8.33;3.50;;;21.70;99.90;;;;;;4455571;28;657894;-74
2023/04/23 09:38:58;;;;;;;6.33;3.97;;;21.20;99.90;;;;;;4413884;28;659365;-74
2023/04/23 09:41:46;;;;;;;6.80;3.50;;;21.30;99.90;;;;;;4437927;28;658959;-74
2023/04/23 09:44:33;;;;;;;5.33;3.30;;;20.80;99.90;;;;;;4461436;28;660118;-74
2023/04/23 09:47:22;;;;;;;6.27;3.40;;;21.20;99.90;;;;;;4421682;28;658770;-75
2023/04/23 09:50:10;;;;;;;12.63;3.27;;;20.90;99.90;;;;;;4443865;28;658670;-75
2023/04/23 09:52:57;;;;;;;10.20;3.63;;;21.00;99.90;;;;;;4419372;28;659480;-75
2023/04/23 09:55:44;;;;;;;6.37;3.43;;;21.60;99.90;;;;;;4452859;28;659944;-75
2023/04/23 09:58:32;;;;;;;11.83;3.53;;;21.70;99.90;;;;;;4413125;28;658872;-74
2023/04/23 10:01:19;;;;;;;5.20;3.00;;;21.10;99.90;;;;;;4433786;28;659765;-75
2023/04/23 10:04:07;;;;;;;5.13;3.33;;;21.10;99.90;;;;;;4434966;28;658280;-74
2023/04/23 10:06:55;;;;;;;6.20;3.20;;;21.50;99.90;;;;;;4438329;28;659132;-74
2023/04/23 10:09:42;;;;;;;8.57;3.33;;;21.20;99.90;;;;;;4434358;28;659586;-74
2023/04/23 10:12:29;;;;;;;8.13;3.37;;;20.80;99.90;;;;;;4450830;28;658435;-75
2023/04/23 10:15:16;;;;;;;8.20;3.40;;;21.30;99.90;;;;;;4435355;28;658521;-73
2023/04/23 10:18:04;;;;;;;7.67;3.27;;;21.90;99.90;;;;;;4438044;28;658842;-74
2023/04/23 10:20:52;;;;;;;6.13;3.23;;;21.90;99.90;;;;;;4434253;28;658857;-74
2023/04/23 10:23:40;;;;;;;6.23;3.20;;;22.70;99.90;;;;;;4443776;28;659381;-74
2023/04/23 10:26:27;;;;;;;5.47;3.00;;;22.80;99.90;;;;;;4446912;28;658973;-74
2023/04/23 10:29:16;;;;;;;6.03;3.00;;;21.70;99.90;;;;;;4455617;28;658834;-74
2023/04/23 10:32:05;;;;;;;4.77;3.10;;;21.70;99.90;;;;;;4419535;28;659208;-75
2023/04/23 10:34:52;;;;;;;5.40;3.47;;;21.60;99.90;;;;;;4434823;28;659431;-73
2023/04/23 10:37:40;;;;;;;3.93;2.70;;;21.90;99.90;;;;;;4452261;28;658423;-74
2023/04/23 10:40:30;;;;;;;4.90;2.90;;;22.10;99.90;;;;;;4426529;28;659302;-76
2023/04/23 10:43:17;;;;;;;5.07;3.20;;;21.80;99.90;;;;;;4420843;28;659409;-73
2023/04/23 10:46:08;;;;;;;7.27;2.90;;;21.40;99.90;;;;;;4438540;28;658625;-73
2023/04/23 10:49:06;;;;;;;5.30;3.30;;;21.20;99.90;;;;;;4431072;28;659025;-73
2023/04/23 10:51:58;;;;;;;5.90;3.30;;;21.60;99.90;;;;;;4414159;28;658754;-74
2023/04/23 10:54:49;;;;;;;6.77;3.37;;;22.10;99.90;;;;;;4389113;28;658829;-75
2023/04/23 10:57:55;;;;;;;7.60;3.07;;;22.70;99.90;;;;;;4424534;28;658575;-74
2023/04/23 11:00:44;;;;;;;5.43;2.90;;;23.30;99.90;;;;;;4424187;28;659120;-74
2023/04/23 11:03:32;;;;;;;4.03;2.80;;;23.10;99.90;;;;;;4435250;28;659052;-74
2023/04/23 11:06:20;;;;;;;5.55;3.10;;;22.60;99.90;;;;;;4439508;28;658832;-74
2023/04/23 11:09:29;;;;;;;4.17;2.57;;;22.70;99.90;;;;;;4422414;28;660108;-73
2023/04/23 11:12:33;;;;;;;4.57;2.57;;;22.30;99.90;;;;;;4411420;28;658916;-73
2023/04/23 11:15:21;;;;;;;7.40;2.60;;;22.90;99.90;;;;;;4421904;28;659081;-71
2023/04/23 11:18:08;;;;;;;7.73;3.07;;;23.30;99.90;;;;;;4445316;28;658986;-74
2023/04/23 11:20:56;;;;;;;6.10;3.13;;;22.90;99.90;;;;;;4422056;28;658906;-74
2023/04/23 11:23:44;;;;;;;8.33;2.87;;;22.20;99.90;;;;;;4431420;28;658501;-75
2023/04/23 11:26:31;;;;;;;7.63;3.20;;;22.10;99.90;;;;;;4412052;28;658308;-75
2023/04/23 11:29:21;;;;;;;6.77;3.17;;;22.50;99.90;;;;;;4436034;28;659545;-73
2023/04/23 11:32:11;;;;;;;3.93;2.57;;;23.00;99.90;;;;;;4405833;28;659386;-74
2023/04/23 11:34:59;;;;;;;3.87;2.70;;;22.90;99.90;;;;;;4411057;28;659299;-75
2023/04/23 11:37:47;;;;;;;6.33;2.90;;;23.00;99.90;;;;;;4431693;28;659140;-74
2023/04/23 11:40:34;;;;;;;6.43;3.30;;;23.50;99.90;;;;;;4450337;28;659449;-75
2023/04/23 11:43:21;;;;;;;5.47;2.60;;;23.10;99.90;;;;;;4410602;28;658379;-74
2023/04/23 11:46:10;;;;;;;4.73;2.90;;;23.60;99.90;;;;;;4454164;28;658573;-75
2023/04/23 11:48:57;;;;;;;5.17;2.60;;;23.60;99.90;;;;;;4418112;28;659849;-74
2023/04/23 11:51:44;;;;;;;6.23;2.63;;;23.70;99.90;;;;;;4444970;28;659102;-75
2023/04/23 11:54:32;;;;;;;7.13;2.83;;;23.20;99.90;;;;;;4410869;28;659159;-75
2023/04/23 11:57:19;;;;;;;10.20;2.97;;;22.40;99.90;;;;;;4439180;28;658071;-74
2023/04/23 12:00:15;;;;;;;6.57;2.83;;;22.70;99.90;;;;;;4423838;28;660234;-74
2023/04/23 12:03:04;;;;;;;3.33;2.60;;;22.50;99.90;;;;;;4386012;28;659566;-74
2023/04/23 12:05:51;;;;;;;4.10;2.53;;;23.00;99.90;;;;;;4428673;28;659058;-74
2023/04/23 12:08:41;;;;;;;6.80;3.10;;;23.80;99.90;;;;;;4457419;28;658784;-74
2023/04/23 12:11:29;;;;;;;7.07;2.73;;;24.20;99.90;;;;;;4432907;28;659591;-75
2023/04/23 12:14:16;;;;;;;8.23;2.40;;;24.50;99.90;;;;;;4427033;28;658917;-75
2023/04/23 12:17:10;;;;;;;3.33;2.60;;;24.10;99.90;;;;;;4453550;28;659510;-75
2023/04/23 12:19:58;;;;;;;8.17;3.10;;;23.30;99.90;;;;;;4394297;28;658824;-75
2023/04/23 12:22:46;;;;;;;4.67;2.90;;;23.50;99.90;;;;;;4419720;28;658580;-73
2023/04/23 12:25:33;;;;;;;4.60;2.63;;;23.40;99.90;;;;;;4459276;28;658604;-74
2023/04/23 12:28:22;;;;;;;4.47;2.70;;;23.40;99.90;;;;;;4444213;28;658969;-74
2023/04/23 12:31:10;;;;;;;4.57;2.70;;;23.10;99.90;;;;;;4441920;28;658615;-73
2023/04/23 12:33:59;;;;;;;4.53;2.67;;;23.40;99.90;;;;;;4448727;28;658914;-72
2023/04/23 12:36:48;;;;;;;3.73;2.50;;;23.70;99.90;;;;;;4434868;28;658780;-74
2023/04/23 12:39:35;;;;;;;6.37;2.83;;;24.00;99.90;;;;;;4425942;28;658575;-74
2023/04/23 12:42:22;;;;;;;8.77;3.47;;;23.90;99.90;;;;;;4455008;28;659901;-74
2023/04/23 12:45:10;;;;;;;6.23;2.73;;;22.70;99.90;;;;;;4435495;28;658866;-73
2023/04/23 12:47:58;;;;;;;9.53;2.90;;;23.30;99.90;;;;;;4429640;28;659193;-74
2023/04/23 12:50:45;;;;;;;3.53;2.73;;;23.80;99.90;;;;;;4433224;28;659166;-74
2023/04/23 12:53:34;;;;;;;5.60;2.70;;;24.60;99.90;;;;;;4438380;28;660109;-74
2023/04/23 12:56:21;;;;;;;6.43;2.90;;;25.10;99.90;;;;;;4438914;28;658322;-74
2023/04/23 12:59:08;;;;;;;5.50;2.80;;;25.10;99.90;;;;;;4458395;28;659548;-75
2023/04/23 13:01:56;;;;;;;6.63;2.60;;;23.90;99.90;;;;;;4419741;28;659249;-74
2023/04/23 13:04:43;;;;;;;3.97;2.90;;;23.80;99.90;;;;;;4455487;28;658524;-75
2023/04/23 13:07:30;;;;;;;6.30;2.63;;;22.70;99.90;;;;;;4445973;28;659077;-73
2023/04/23 13:10:19;;;;;;;3.37;2.63;;;23.00;99.90;;;;;;4466453;28;659673;-75
2023/04/23 13:13:06;;;;;;;4.40;3.00;;;23.40;99.90;;;;;;4436071;28;661445;-74
2023/04/23 13:15:53;;;;;;;4.07;2.40;;;23.90;99.90;;;;;;4442774;28;658970;-74
2023/04/23 13:18:40;;;;;;;5.80;2.53;;;24.20;99.90;;;;;;4426031;28;659214;-74
2023/04/23 13:21:28;;;;;;;4.63;2.63;;;24.10;99.90;;;;;;4456427;28;659263;-75
2023/04/23 13:24:15;;;;;;;6.30;2.80;;;24.30;99.90;;;;;;4454146;28;658358;-73
2023/04/23 13:27:04;;;;;;;5.17;2.63;;;24.30;99.90;;;;;;4450556;28;659631;-72
2023/04/23 13:29:51;;;;;;;4.30;2.60;;;23.90;99.90;;;;;;4435557;28;658775;-74
2023/04/23 13:32:38;;;;;;;6.60;2.83;;;23.60;99.90;;;;;;4430965;28;659600;-74
2023/04/23 13:35:25;;;;;;;4.03;2.70;;;22.20;99.90;;;;;;4420318;28;658960;-73
2023/04/23 13:38:13;;;;;;;6.30;2.80;;;21.80;99.90;;;;;;4432814;28;659774;-75
2023/04/23 13:41:00;;;;;;;6.53;3.10;;;21.70;99.90;;;;;;4435195;28;658568;-73
2023/04/23 13:43:49;;;;;;;4.30;2.70;;;21.50;99.90;;;;;;4454843;28;659880;-74
2023/04/23 13:46:37;;;;;;;8.30;2.63;;;21.90;99.90;;;;;;4430511;28;659049;-74
2023/04/23 13:49:24;;;;;;;8.40;2.67;;;22.00;99.90;;;;;;4446004;28;658962;-74
2023/04/23 13:52:12;;;;;;;5.40;2.80;;;22.10;99.90;;;;;;4422513;28;659182;-75
2023/04/23 13:55:02;;;;;;;6.90;2.90;;;22.20;99.90;;;;;;4445340;28;658770;-75
2023/04/23 13:57:49;;;;;;;5.30;2.97;;;22.10;99.90;;;;;;4420007;28;658803;-75
2023/04/23 14:00:38;;;;;;;7.23;5.00;;;22.60;99.90;;;;;;4431419;28;658381;-74
2023/04/23 14:03:25;;;;;;;4.83;3.13;;;23.70;99.90;;;;;;4421968;28;658513;-74
2023/04/23 14:06:13;;;;;;;6.20;2.87;;;24.90;99.90;;;;;;4433272;28;659098;-75
2023/04/23 14:09:00;;;;;;;7.13;2.77;;;25.80;99.90;;;;;;4439363;28;658346;-74
2023/04/23 14:11:47;;;;;;;4.72;2.58;;;25.20;99.90;;;;;;4457216;28;659307;-75
2023/04/23 14:14:35;;;;;;;9.13;2.80;;;25.00;99.90;;;;;;4436387;28;658977;-75
2023/04/23 14:17:24;;;;;;;4.53;2.55;;;25.10;99.90;;;;;;4438775;28;660375;-74
2023/04/23 14:20:14;;;;;;;5.13;2.90;;;25.10;99.90;;;;;;4422359;28;658783;-75